createdAt,value
2022-08-17T00:02:26.755Z,20.65
2022-08-17T00:05:33.289Z,20.65
2022-08-17T00:08:40.519Z,20.56
2022-08-17T00:12:34.686Z,20.52
2022-08-17T00:15:08.296Z,20.55
2022-08-17T00:18:53.744Z,20.48
2022-08-17T00:22:29.402Z,20.41
2022-08-17T00:25:03.050Z,20.32
2022-08-17T00:28:06.263Z,20.25
2022-08-17T00:31:10.765Z,20.14
2022-08-17T00:34:13.265Z,20.13
2022-08-17T00:37:16.271Z,20.12
2022-08-17T00:40:19.933Z,20.05
2022-08-17T00:43:33.368Z,20.02
2022-08-17T00:46:41.109Z,20.04
2022-08-17T00:49:43.910Z,20.01
2022-08-17T00:52:56.497Z,19.91
2022-08-17T00:56:05.980Z,19.82
2022-08-17T00:59:09.291Z,19.83
2022-08-17T01:02:14.957Z,19.80
2022-08-17T01:05:21.278Z,19.87
2022-08-17T01:08:26.567Z,19.76
2022-08-17T01:11:30.635Z,19.79
2022-08-17T01:14:33.464Z,19.94
2022-08-17T01:17:36.218Z,19.99
2022-08-17T01:20:49.087Z,19.89
2022-08-17T01:23:51.698Z,19.84
2022-08-17T01:26:56.745Z,19.71
2022-08-17T01:30:03.998Z,19.68
2022-08-17T01:33:11.421Z,19.61
2022-08-17T01:36:14.131Z,19.48
2022-08-17T01:39:29.055Z,19.47
2022-08-17T01:42:35.440Z,19.48
2022-08-17T01:45:42.301Z,19.51
2022-08-17T01:48:47.673Z,19.40
2022-08-17T01:51:50.598Z,19.38
2022-08-17T01:54:53.536Z,19.28
2022-08-17T01:57:56.391Z,19.25
2022-08-17T02:01:00.067Z,19.24
2022-08-17T02:04:05.543Z,19.21
2022-08-17T02:07:08.153Z,19.13
2022-08-17T02:10:19.793Z,19.15
2022-08-17T02:13:23.371Z,19.22
2022-08-17T02:16:26.201Z,19.28
2022-08-17T02:19:31.323Z,19.30
2022-08-17T02:22:35.552Z,19.26
2022-08-17T02:25:39.600Z,19.27
2022-08-17T02:28:42.487Z,19.22
2022-08-17T02:31:44.973Z,19.24
2022-08-17T02:34:48.120Z,19.25
2022-08-17T02:37:51.811Z,19.23
2022-08-17T02:40:59.230Z,19.08
2022-08-17T02:44:01.934Z,18.95
2022-08-17T02:47:04.877Z,18.88
2022-08-17T02:50:09.169Z,18.80
2022-08-17T02:53:12.151Z,18.73
2022-08-17T02:56:14.646Z,18.74
2022-08-17T02:59:18.341Z,18.57
2022-08-17T03:02:20.861Z,18.65
2022-08-17T03:05:26.326Z,18.61
2022-08-17T03:08:29.716Z,18.56
2022-08-17T03:11:32.803Z,18.49
2022-08-17T03:14:42.691Z,18.62
2022-08-17T03:17:45.528Z,18.73
2022-08-17T03:20:49.838Z,18.64
2022-08-17T03:23:54.514Z,18.73
2022-08-17T03:26:57.276Z,18.69
2022-08-17T03:30:00.138Z,18.57
2022-08-17T03:33:04.424Z,18.50
2022-08-17T03:36:07.505Z,18.49
2022-08-17T03:39:10.488Z,18.43
2022-08-17T03:42:31.243Z,18.41
2022-08-17T03:45:54.990Z,18.36
2022-08-17T03:49:16.438Z,18.41
2022-08-17T03:52:37.368Z,18.43
2022-08-17T03:56:00.357Z,18.45
2022-08-17T03:59:02.906Z,18.45
2022-08-17T04:02:09.777Z,18.45
2022-08-17T04:05:12.694Z,18.51
2022-08-17T04:08:15.439Z,18.52
2022-08-17T04:11:18.519Z,18.54
2022-08-17T04:14:21.310Z,18.57
2022-08-17T04:17:27.409Z,18.62
2022-08-17T04:20:33.436Z,18.62
2022-08-17T04:23:37.912Z,18.67
2022-08-17T04:26:53.039Z,18.71
2022-08-17T04:29:57.217Z,18.78
2022-08-17T04:33:07.265Z,18.84
2022-08-17T04:36:15.396Z,19.01
2022-08-17T04:39:19.658Z,19.11
2022-08-17T04:42:22.457Z,19.17
2022-08-17T04:45:24.961Z,19.23
2022-08-17T04:48:38.136Z,19.30
2022-08-17T04:51:54.450Z,19.47
2022-08-17T04:54:59.158Z,19.54
2022-08-17T04:58:01.690Z,19.62
2022-08-17T05:01:06.034Z,19.69
2022-08-17T05:04:33.035Z,19.90
2022-08-17T05:07:34.310Z,20.01
2022-08-17T05:10:39.131Z,20.14
2022-08-17T05:13:50.362Z,20.26
2022-08-17T05:16:53.046Z,20.46
2022-08-17T05:19:55.971Z,20.97
2022-08-17T05:23:01.043Z,21.48
2022-08-17T05:26:04.363Z,21.76
2022-08-17T05:29:10.419Z,21.80
2022-08-17T05:32:39.571Z,21.79
2022-08-17T05:35:38.248Z,21.82
2022-08-17T05:38:41.536Z,21.89
2022-08-17T05:41:46.678Z,22.00
2022-08-17T05:44:49.576Z,22.13
2022-08-17T05:47:52.182Z,22.29
2022-08-17T05:51:10.045Z,22.35
2022-08-17T05:54:49.697Z,22.51
2022-08-17T05:58:21.754Z,22.50
2022-08-17T06:01:59.173Z,22.56
2022-08-17T06:05:26.910Z,22.79
2022-08-17T06:08:51.693Z,22.92
2022-08-17T06:12:20.376Z,22.97
2022-08-17T06:15:33.316Z,23.12
2022-08-17T06:18:45.823Z,23.23
2022-08-17T06:21:51.599Z,23.38
2022-08-17T06:24:57.270Z,23.44
2022-08-17T06:28:05.176Z,23.61
2022-08-17T06:31:17.492Z,23.85
2022-08-17T06:34:20.910Z,23.95
2022-08-17T06:37:36.374Z,24.11
2022-08-17T06:41:10.310Z,24.43
2022-08-17T06:44:43.113Z,24.48
2022-08-17T06:47:50.034Z,24.69
2022-08-17T06:51:00.175Z,24.92
2022-08-17T06:54:08.180Z,25.11
2022-08-17T06:57:10.919Z,25.30
2022-08-17T07:00:18.195Z,25.61
2022-08-17T07:03:28.121Z,25.31
2022-08-17T07:06:37.771Z,25.88
2022-08-17T07:09:41.358Z,25.91
2022-08-17T07:12:44.879Z,26.40
2022-08-17T07:15:51.814Z,26.64
2022-08-17T07:18:59.692Z,26.55
2022-08-17T07:22:16.191Z,27.67
2022-08-17T07:25:20.797Z,29.15
2022-08-17T07:28:24.590Z,30.30
2022-08-17T07:31:30.568Z,31.10
2022-08-17T07:35:10.649Z,32.45
2022-08-17T07:38:54.543Z,32.70
2022-08-17T07:42:04.786Z,33.06
2022-08-17T07:45:28.028Z,34.86
2022-08-17T07:48:35.944Z,35.45
2022-08-17T07:51:56.683Z,34.86
2022-08-17T07:55:27.545Z,34.42
2022-08-17T07:58:30.172Z,34.11
2022-08-17T08:01:39.355Z,35.71
2022-08-17T08:05:06.683Z,36.39
2022-08-17T08:08:30.848Z,34.76
2022-08-17T08:11:37.542Z,35.69
2022-08-17T08:14:43.643Z,36.11
2022-08-17T08:17:54.472Z,36.17
2022-08-17T08:21:07.055Z,36.60
2022-08-17T08:24:19.622Z,37.63
2022-08-17T08:27:29.167Z,36.83
2022-08-17T08:30:40.819Z,36.79
2022-08-17T08:33:56.761Z,36.81
2022-08-17T08:37:16.494Z,37.47
2022-08-17T08:40:32.410Z,36.08
2022-08-17T08:44:06.561Z,38.94
2022-08-17T08:47:26.605Z,38.53
2022-08-17T08:51:02.227Z,39.29
2022-08-17T08:54:38.722Z,35.95
2022-08-17T08:57:48.994Z,39.55
2022-08-17T09:00:56.948Z,38.70
2022-08-17T09:05:02.655Z,36.44
2022-08-17T09:08:04.604Z,37.02
2022-08-17T09:12:02.428Z,39.71
2022-08-17T09:15:18.624Z,39.39
2022-08-17T09:19:02.468Z,40.31
2022-08-17T09:22:14.843Z,39.15
2022-08-17T09:25:26.343Z,40.51
2022-08-17T09:28:33.231Z,40.17
2022-08-17T09:31:49.071Z,39.20
2022-08-17T09:35:01.582Z,41.00
2022-08-17T09:38:36.073Z,41.09
2022-08-17T09:41:49.328Z,41.54
2022-08-17T09:44:58.530Z,42.21
2022-08-17T09:48:41.953Z,42.01
2022-08-17T09:51:49.424Z,41.45
2022-08-17T09:54:54.002Z,41.64
2022-08-17T09:58:07.743Z,41.97
2022-08-17T10:01:39.976Z,41.35
2022-08-17T10:05:27.915Z,41.82
2022-08-17T10:08:44.715Z,41.93
2022-08-17T10:12:30.055Z,42.16
2022-08-17T10:15:54.028Z,43.04
2022-08-17T10:19:05.516Z,43.70
2022-08-17T10:22:47.806Z,36.37
2022-08-17T10:26:25.300Z,41.76
2022-08-17T10:29:49.757Z,42.86
2022-08-17T10:32:56.546Z,43.01
2022-08-17T10:36:21.821Z,42.88
2022-08-17T10:39:53.574Z,43.76
2022-08-17T10:43:39.492Z,41.40
2022-08-17T10:46:52.378Z,43.01
2022-08-17T10:49:56.370Z,42.83
2022-08-17T10:52:59.408Z,42.75
2022-08-17T10:56:14.143Z,42.55
2022-08-17T10:59:37.191Z,43.22
2022-08-17T11:02:49.851Z,43.04
2022-08-17T11:06:13.097Z,43.30
2022-08-17T11:09:39.037Z,43.14
2022-08-17T11:13:02.111Z,41.35
2022-08-17T11:16:32.713Z,41.39
2022-08-17T11:19:58.086Z,40.67
2022-08-17T11:23:12.913Z,41.50
2022-08-17T11:26:26.118Z,41.12
2022-08-17T11:29:37.479Z,41.36
2022-08-17T11:32:47.585Z,42.56
2022-08-17T11:36:07.917Z,41.69
2022-08-17T11:39:23.554Z,38.45
2022-08-17T11:42:32.112Z,41.77
2022-08-17T11:45:45.938Z,42.49
2022-08-17T11:49:06.920Z,40.80
2022-08-17T11:52:38.250Z,40.31
2022-08-17T11:55:44.824Z,41.61
2022-08-17T11:58:48.645Z,41.73
2022-08-17T12:01:55.819Z,39.12
2022-08-17T12:05:28.168Z,41.10
2022-08-17T12:08:32.756Z,41.41
2022-08-17T12:12:14.341Z,39.47
2022-08-17T12:15:25.738Z,37.56
2022-08-17T12:18:35.773Z,37.53
2022-08-17T12:21:46.329Z,36.53
2022-08-17T12:25:05.021Z,35.83
2022-08-17T12:28:47.130Z,35.66
2022-08-17T12:31:52.150Z,35.34
2022-08-17T12:34:54.817Z,36.06
2022-08-17T12:37:58.010Z,35.89
2022-08-17T12:41:21.238Z,35.48
2022-08-17T12:44:28.254Z,35.45
2022-08-17T12:47:31.926Z,35.15
2022-08-17T12:50:41.268Z,34.64
2022-08-17T12:53:52.587Z,34.56
2022-08-17T12:57:02.853Z,34.41
2022-08-17T13:00:16.514Z,35.19
2022-08-17T13:03:23.004Z,34.44
2022-08-17T13:06:33.876Z,34.89
2022-08-17T13:09:40.478Z,34.69
2022-08-17T13:12:43.348Z,34.95
2022-08-17T13:15:55.742Z,35.05
2022-08-17T13:19:15.983Z,34.34
2022-08-17T13:22:23.197Z,34.03
2022-08-17T13:25:26.874Z,33.91
2022-08-17T13:28:35.817Z,33.66
2022-08-17T13:31:52.076Z,33.52
2022-08-17T13:35:11.760Z,33.50
2022-08-17T13:38:45.694Z,33.69
2022-08-17T13:41:50.329Z,33.48
2022-08-17T13:44:52.827Z,33.27
2022-08-17T13:48:22.378Z,33.69
2022-08-17T13:51:27.885Z,33.68
2022-08-17T13:54:35.568Z,33.52
2022-08-17T13:57:38.180Z,33.59
2022-08-17T14:00:41.660Z,33.50
2022-08-17T14:03:44.538Z,33.67
2022-08-17T14:07:12.955Z,33.44
2022-08-17T14:10:18.385Z,33.40
2022-08-17T14:13:21.288Z,33.25
2022-08-17T14:16:24.112Z,33.28
2022-08-17T14:19:27.000Z,33.31
2022-08-17T14:22:32.763Z,33.21
2022-08-17T14:25:35.604Z,33.17
2022-08-17T14:28:38.906Z,33.26
2022-08-17T14:31:58.679Z,33.11
2022-08-17T14:35:02.828Z,32.92
2022-08-17T14:38:06.083Z,32.99
2022-08-17T14:41:08.874Z,33.03
2022-08-17T14:44:12.621Z,32.95
2022-08-17T14:47:15.997Z,32.70
2022-08-17T14:50:19.626Z,32.74
2022-08-17T14:53:22.585Z,32.85
2022-08-17T14:56:26.136Z,32.76
2022-08-17T14:59:29.022Z,32.64
2022-08-17T15:02:43.484Z,32.64
2022-08-17T15:05:46.915Z,32.67
2022-08-17T15:08:49.749Z,32.63
2022-08-17T15:11:53.893Z,32.46
2022-08-17T15:14:57.131Z,32.58
2022-08-17T15:18:02.585Z,32.53
2022-08-17T15:21:07.478Z,32.53
2022-08-17T15:24:10.563Z,32.49
2022-08-17T15:27:13.085Z,32.52
2022-08-17T15:30:17.021Z,32.52
2022-08-17T15:33:29.234Z,32.47
2022-08-17T15:36:33.265Z,32.41
2022-08-17T15:39:35.859Z,32.34
2022-08-17T15:42:41.193Z,32.27
2022-08-17T15:45:43.995Z,32.31
2022-08-17T15:48:49.388Z,32.22
2022-08-17T15:51:51.887Z,32.19
2022-08-17T15:55:00.153Z,32.22
2022-08-17T15:58:03.181Z,32.15
2022-08-17T16:01:16.511Z,32.10
2022-08-17T16:04:26.820Z,32.05
2022-08-17T16:07:33.827Z,32.02
2022-08-17T16:10:36.855Z,32.03
2022-08-17T16:13:40.820Z,31.86
2022-08-17T16:16:43.656Z,31.81
2022-08-17T16:19:46.383Z,31.68
2022-08-17T16:22:50.398Z,31.69
2022-08-17T16:25:54.375Z,31.63
2022-08-17T16:28:58.795Z,31.59
2022-08-17T16:32:14.968Z,31.53
2022-08-17T16:35:18.649Z,31.39
2022-08-17T16:38:22.315Z,31.37
2022-08-17T16:41:44.376Z,31.24
2022-08-17T16:44:46.886Z,31.12
2022-08-17T16:47:50.288Z,30.94
2022-08-17T16:51:03.316Z,30.80
2022-08-17T16:54:07.475Z,30.68
2022-08-17T16:57:11.213Z,30.48
2022-08-17T17:00:15.803Z,30.38
2022-08-17T17:03:20.990Z,30.38
2022-08-17T17:06:48.523Z,30.35
2022-08-17T17:09:52.708Z,30.16
2022-08-17T17:13:01.130Z,30.05
2022-08-17T17:16:18.407Z,30.05
2022-08-17T17:19:34.947Z,29.93
2022-08-17T17:22:55.488Z,29.87
2022-08-17T17:26:48.391Z,29.69
2022-08-17T17:29:50.876Z,29.47
2022-08-17T17:33:10.625Z,29.28
2022-08-17T17:36:23.120Z,29.18
2022-08-17T17:39:49.098Z,29.06
2022-08-17T17:42:55.134Z,28.97
2022-08-17T17:46:27.742Z,28.78
2022-08-17T17:49:46.049Z,28.62
2022-08-17T17:53:17.422Z,28.42
2022-08-17T17:56:50.050Z,28.28
2022-08-17T18:00:24.324Z,28.08
2022-08-17T18:04:00.829Z,27.91
2022-08-17T18:07:12.390Z,27.79
2022-08-17T18:10:41.968Z,27.70
2022-08-17T18:13:54.189Z,27.56
2022-08-17T18:16:59.363Z,27.39
2022-08-17T18:20:03.947Z,27.25
2022-08-17T18:23:07.469Z,27.13
2022-08-17T18:26:10.195Z,27.09
2022-08-17T18:29:35.974Z,27.02
2022-08-17T18:32:46.487Z,26.97
2022-08-17T18:35:58.674Z,26.88
2022-08-17T18:39:19.206Z,26.70
2022-08-17T18:42:27.726Z,26.55
2022-08-17T18:45:33.806Z,26.41
2022-08-17T18:48:51.160Z,26.26
2022-08-17T18:52:14.384Z,26.18
2022-08-17T18:55:27.891Z,26.13
2022-08-17T18:58:30.556Z,26.03
2022-08-17T19:02:20.599Z,25.93
2022-08-17T19:05:35.117Z,25.85
2022-08-17T19:08:38.026Z,25.76
2022-08-17T19:11:41.159Z,25.69
2022-08-17T19:14:44.177Z,25.56
2022-08-17T19:18:04.002Z,25.46
2022-08-17T19:21:13.068Z,25.37
2022-08-17T19:24:22.215Z,25.28
2022-08-17T19:27:41.680Z,25.24
2022-08-17T19:30:45.029Z,25.13
2022-08-17T19:33:48.680Z,25.02
2022-08-17T19:37:00.286Z,24.90
2022-08-17T19:40:41.728Z,24.84
2022-08-17T19:43:57.952Z,24.67
2022-08-17T19:47:54.344Z,24.55
2022-08-17T19:51:04.789Z,24.46
2022-08-17T19:54:31.489Z,24.42
2022-08-17T19:57:57.064Z,24.36
2022-08-17T20:01:00.937Z,24.28
2022-08-17T20:04:13.151Z,24.17
2022-08-17T20:07:20.401Z,24.05
2022-08-17T20:10:47.359Z,23.95
2022-08-17T20:14:08.350Z,23.71
2022-08-17T20:17:12.182Z,23.61
2022-08-17T20:20:38.406Z,23.63
2022-08-17T20:24:14.429Z,23.76
2022-08-17T20:27:31.597Z,23.71
2022-08-17T20:30:40.987Z,23.80
2022-08-17T20:33:43.905Z,23.94
2022-08-17T20:37:08.572Z,23.86
2022-08-17T20:40:17.731Z,23.77
2022-08-17T20:43:32.774Z,23.76
2022-08-17T20:46:38.429Z,23.72
2022-08-17T20:49:41.396Z,23.66
2022-08-17T20:52:58.284Z,23.63
2022-08-17T20:56:01.116Z,23.80
2022-08-17T20:59:03.800Z,24.30
2022-08-17T21:02:12.410Z,24.18
2022-08-17T21:05:57.392Z,24.30
2022-08-17T21:09:12.675Z,24.58
2022-08-17T21:12:42.043Z,24.70
2022-08-17T21:16:03.120Z,24.99
2022-08-17T21:19:16.953Z,24.43
2022-08-17T21:22:34.264Z,24.15
2022-08-17T21:25:58.218Z,23.86
2022-08-17T21:29:30.144Z,23.55
2022-08-17T21:32:30.375Z,23.39
2022-08-17T21:35:54.414Z,23.22
2022-08-17T21:39:10.332Z,23.13
2022-08-17T21:42:13.169Z,22.93
2022-08-17T21:45:27.472Z,22.85
2022-08-17T21:48:32.484Z,22.82
2022-08-17T21:51:37.136Z,22.77
2022-08-17T21:54:44.450Z,22.70
2022-08-17T21:57:53.066Z,22.57
2022-08-17T22:01:26.460Z,22.49
2022-08-17T22:04:32.945Z,22.41
2022-08-17T22:07:44.364Z,22.33
2022-08-17T22:10:50.651Z,22.31
2022-08-17T22:14:05.208Z,22.25
2022-08-17T22:17:19.127Z,22.21
2022-08-17T22:20:22.295Z,22.21
2022-08-17T22:23:54.418Z,22.55
2022-08-17T22:27:03.069Z,22.38
2022-08-17T22:30:25.849Z,22.25
2022-08-17T22:33:47.969Z,22.15
2022-08-17T22:37:20.811Z,22.06
2022-08-17T22:40:32.641Z,21.93
2022-08-17T22:43:38.212Z,21.78
2022-08-17T22:47:17.057Z,21.82
2022-08-17T22:50:26.475Z,21.87
2022-08-17T22:53:47.665Z,21.73
2022-08-17T22:57:18.724Z,21.69
2022-08-17T23:00:29.267Z,21.63
2022-08-17T23:03:32.076Z,21.50
2022-08-17T23:06:36.241Z,21.55
2022-08-17T23:09:39.435Z,21.52
2022-08-17T23:12:42.301Z,21.50
2022-08-17T23:15:45.956Z,21.45
2022-08-17T23:18:52.205Z,21.40
2022-08-17T23:21:56.615Z,21.31
2022-08-17T23:24:59.864Z,21.30
2022-08-17T23:28:05.461Z,21.27
2022-08-17T23:31:07.988Z,21.35
2022-08-17T23:34:13.272Z,21.41
2022-08-17T23:37:20.477Z,21.60
2022-08-17T23:40:23.895Z,21.69
2022-08-17T23:43:28.375Z,21.53
2022-08-17T23:46:31.263Z,21.59
2022-08-17T23:49:34.009Z,21.47
2022-08-17T23:52:37.938Z,21.60
2022-08-17T23:55:40.422Z,21.83
2022-08-17T23:58:44.871Z,21.77
